Prineville, Oregon
Current Conditions -  °F | °C
As of 8:35 PM on Wednesday 22 Oct 2014 (Local Time) from KS39 Reporting Station
Overcast Overcast  
Wind Chill: 15°   Ceiling: 5000
Heat Index: 15°   Visibility: 10mi
Dew Point:   Wind: 18mph
Humidity: 51%   Direction: 170°S
Pressure: 29.81"   Gusts: NA
Location:  44.3°N, 120.84°W
Report Text: KS39 230335Z AUTO 17016KT 10SM BKN050 OVC055 15/05 A2981 RMK AO2
Loading
Personal Weather Stations






























Interactive Weather Map
Tropical Storm Tracking
New forecast layout! Learn more

10-Day Weather Forecast

Advertisements
Track Severe Weather on mobile